Time;durP1;ratioP1;P1;durP2;ratioP2;P2;SDS_P1;SDS_P2;PMS_P1;PMS_P2;Temp;Humidity;BMP_temperature;BMP_pressure;BME280_temperature;BME280_humidity;BME280_pressure;Samples;Min_cycle;Max_cycle;Signal;HPM_P1;HPM_P2
2022/03/29 00:00:12;;;;;;;16.42;4.68;;;12.30;65.60;;;;;;4993445;28;20026;-79
2022/03/29 00:02:41;;;;;;;18.10;4.75;;;12.40;65.10;;;;;;4983658;28;20073;-79
2022/03/29 00:05:07;;;;;;;18.35;5.22;;;12.40;65.50;;;;;;4979384;28;20030;-79
2022/03/29 00:07:34;;;;;;;17.33;4.30;;;12.30;65.60;;;;;;4993098;28;20026;-79
2022/03/29 00:10:04;;;;;;;17.00;5.15;;;12.30;66.20;;;;;;4993231;28;20054;-79
2022/03/29 00:12:31;;;;;;;20.02;4.88;;;12.20;66.90;;;;;;4976126;28;20418;-79
2022/03/29 00:14:56;;;;;;;17.50;4.63;;;12.20;66.60;;;;;;4992946;28;20022;-79
2022/03/29 00:17:22;;;;;;;16.08;4.63;;;12.20;67.00;;;;;;4993115;28;20402;-79
2022/03/29 00:19:48;;;;;;;13.20;4.60;;;12.20;67.00;;;;;;4987844;28;20037;-79
2022/03/29 00:22:13;;;;;;;14.85;5.32;;;12.20;67.00;;;;;;4955937;28;20031;-79
2022/03/29 00:24:39;;;;;;;16.17;4.18;;;12.20;67.40;;;;;;4973743;28;20038;-79
2022/03/29 00:27:05;;;;;;;18.02;4.97;;;12.20;67.00;;;;;;4973772;28;20046;-79
2022/03/29 00:29:31;;;;;;;26.42;4.28;;;12.20;67.40;;;;;;4973704;28;20511;-79
2022/03/29 00:31:57;;;;;;;17.77;4.53;;;12.20;67.20;;;;;;4973462;28;20102;-79
2022/03/29 00:34:23;;;;;;;16.58;4.30;;;12.20;67.40;;;;;;4989241;28;20486;-79
2022/03/29 00:36:48;;;;;;;15.32;4.38;;;12.20;67.50;;;;;;4975135;28;20055;-79
2022/03/29 00:39:15;;;;;;;31.38;5.22;;;12.30;67.50;;;;;;4991176;28;20030;-79
2022/03/29 00:41:41;;;;;;;9.40;4.00;;;12.20;67.50;;;;;;4987380;28;20034;-79
2022/03/29 00:44:06;;;;;;;13.77;4.00;;;12.20;68.10;;;;;;4973409;28;20041;-79
2022/03/29 00:46:33;;;;;;;15.63;4.63;;;12.20;68.00;;;;;;4973152;28;20045;-79
2022/03/29 00:48:59;;;;;;;17.08;5.38;;;12.10;68.50;;;;;;4973665;28;20031;-79
2022/03/29 00:51:25;;;;;;;20.38;5.45;;;12.10;68.50;;;;;;4973022;28;20029;-79
2022/03/29 00:53:51;;;;;;;12.98;4.47;;;12.00;69.10;;;;;;4973309;28;20027;-79
2022/03/29 00:56:20;;;;;;;12.75;4.32;;;12.00;69.20;;;;;;4973103;28;20019;-79
2022/03/29 00:58:46;;;;;;;19.52;4.68;;;12.00;69.30;;;;;;4973566;28;20027;-79
2022/03/29 01:01:14;;;;;;;15.50;4.70;;;12.00;69.50;;;;;;4989086;28;20040;-79
2022/03/29 01:03:43;;;;;;;13.20;4.30;;;12.10;69.20;;;;;;4992585;28;20040;-79
2022/03/29 01:06:08;;;;;;;15.05;4.25;;;12.00;69.10;;;;;;4991944;28;20023;-79
2022/03/29 01:08:35;;;;;;;27.35;5.18;;;12.00;69.10;;;;;;4992447;28;20038;-79
2022/03/29 01:11:05;;;;;;;17.58;4.32;;;12.00;69.40;;;;;;4987011;28;20573;-79
2022/03/29 01:13:31;;;;;;;12.77;4.43;;;12.00;69.50;;;;;;4990424;28;20023;-79
2022/03/29 01:17:38;;;;;;;15.93;4.10;;;11.90;69.70;;;;;;4992567;28;20031;-79
2022/03/29 01:18:45;;;;;;;10.82;4.45;;;11.90;69.90;;;;;;4991758;28;20058;-79
2022/03/29 01:21:15;;;;;;;10.05;4.43;;;12.00;69.60;;;;;;4973553;28;20015;-79
2022/03/29 01:23:41;;;;;;;10.23;4.38;;;12.00;69.80;;;;;;4972820;28;20026;-79
2022/03/29 01:26:07;;;;;;;15.80;3.90;;;12.00;70.00;;;;;;4962216;28;20387;-79
2022/03/29 01:28:33;;;;;;;19.23;5.05;;;11.90;70.50;;;;;;4990469;28;20015;-79
2022/03/29 01:30:58;;;;;;;15.55;4.45;;;11.90;70.50;;;;;;4996191;28;20033;-79
2022/03/29 01:33:24;;;;;;;12.55;4.03;;;12.00;70.50;;;;;;4996066;28;20033;-79
2022/03/29 01:35:52;;;;;;;14.93;4.30;;;11.90;70.60;;;;;;4995634;28;20058;-79
2022/03/29 01:38:18;;;;;;;12.73;3.97;;;11.80;71.00;;;;;;4995300;28;20026;-79
2022/03/29 01:40:44;;;;;;;8.93;4.40;;;11.80;70.80;;;;;;4995591;28;20081;-79
2022/03/29 01:43:11;;;;;;;21.45;4.70;;;11.80;71.30;;;;;;4996070;28;20041;-79
2022/03/29 01:45:37;;;;;;;19.10;4.90;;;11.80;71.10;;;;;;4996079;28;20030;-79
2022/03/29 01:48:03;;;;;;;13.68;4.22;;;11.80;71.20;;;;;;4995558;28;20505;-79
2022/03/29 01:50:29;;;;;;;13.70;4.22;;;11.80;71.10;;;;;;4996478;28;20034;-79
2022/03/29 01:52:56;;;;;;;15.73;4.22;;;11.80;71.20;;;;;;4994706;28;20022;-79
2022/03/29 01:55:22;;;;;;;12.45;4.10;;;11.80;71.50;;;;;;4995750;28;20034;-79
2022/03/29 01:57:49;;;;;;;14.18;4.40;;;11.80;72.00;;;;;;4996320;28;20097;-79
2022/03/29 02:00:31;;;;;;;17.23;5.00;;;11.70;72.30;;;;;;4995812;28;20482;-79
2022/03/29 02:02:58;;;;;;;15.07;4.88;;;11.80;72.50;;;;;;4995665;28;20040;-79
2022/03/29 02:05:24;;;;;;;15.98;4.20;;;11.70;72.60;;;;;;4995496;28;20030;-79
2022/03/29 02:07:50;;;;;;;15.05;4.10;;;11.70;72.80;;;;;;4995142;28;20050;-79
2022/03/29 02:10:17;;;;;;;14.18;4.45;;;11.70;73.00;;;;;;4995498;28;20022;-79
2022/03/29 02:12:44;;;;;;;18.13;4.38;;;11.70;73.10;;;;;;4995768;28;20073;-79
2022/03/29 02:15:10;;;;;;;8.13;3.42;;;11.60;73.40;;;;;;4995808;28;20379;-79
2022/03/29 02:17:35;;;;;;;12.43;4.15;;;11.60;73.90;;;;;;4977643;28;20102;-79
2022/03/29 02:20:02;;;;;;;19.35;5.18;;;11.60;74.20;;;;;;4995907;28;20062;-79
2022/03/29 02:22:28;;;;;;;16.20;4.60;;;11.50;74.60;;;;;;4978730;28;20030;-79
2022/03/29 02:24:54;;;;;;;11.18;4.18;;;11.50;74.90;;;;;;4977040;28;20510;-79
2022/03/29 02:27:19;;;;;;;17.90;4.70;;;11.50;75.10;;;;;;4994562;28;20034;-79
2022/03/29 02:29:45;;;;;;;9.35;3.65;;;11.50;75.40;;;;;;4995379;28;20034;-79
2022/03/29 02:32:11;;;;;;;17.20;3.80;;;11.50;75.60;;;;;;4977344;28;20033;-79
2022/03/29 02:34:36;;;;;;;11.43;4.05;;;11.50;76.00;;;;;;4995065;28;20026;-79
2022/03/29 02:37:02;;;;;;;12.57;5.18;;;11.40;76.30;;;;;;4977457;28;20391;-79
2022/03/29 02:39:28;;;;;;;21.08;4.93;;;11.50;76.70;;;;;;4994933;28;20398;-79
2022/03/29 02:41:54;;;;;;;16.80;4.13;;;11.40;77.10;;;;;;4993905;28;20030;-79
2022/03/29 02:44:20;;;;;;;11.32;3.78;;;11.40;77.60;;;;;;4993540;28;20037;-79
2022/03/29 02:46:45;;;;;;;15.43;4.97;;;11.40;78.00;;;;;;4994680;28;20084;-79
2022/03/29 02:49:11;;;;;;;12.02;4.63;;;11.40;78.40;;;;;;4985044;28;20025;-79
2022/03/29 02:51:37;;;;;;;11.45;4.72;;;11.30;78.70;;;;;;4975838;28;20066;-79
2022/03/29 02:54:03;;;;;;;18.48;4.45;;;11.40;79.20;;;;;;4975621;28;20073;-79
2022/03/29 02:56:29;;;;;;;15.25;3.83;;;11.30;79.60;;;;;;4975331;28;20065;-79
2022/03/29 02:58:55;;;;;;;9.23;4.10;;;11.30;80.30;;;;;;4975319;28;20050;-79
2022/03/29 03:01:21;;;;;;;18.05;4.43;;;11.20;80.90;;;;;;4974914;28;20035;-79
2022/03/29 03:03:46;;;;;;;17.15;4.60;;;11.30;81.20;;;;;;4975145;28;20051;-79
2022/03/29 03:06:12;;;;;;;10.18;4.15;;;11.20;81.70;;;;;;4975349;28;20514;-79
2022/03/29 03:08:38;;;;;;;22.23;4.85;;;11.20;82.10;;;;;;4975108;28;20475;-78
2022/03/29 03:11:03;;;;;;;14.75;4.40;;;11.20;82.80;;;;;;4980691;28;20054;-79
2022/03/29 03:13:29;;;;;;;8.98;4.00;;;11.20;82.80;;;;;;4993698;28;20028;-79
2022/03/29 03:15:55;;;;;;;10.45;3.80;;;11.20;83.10;;;;;;4994327;28;20045;-78
2022/03/29 03:18:21;;;;;;;27.92;6.40;;;11.20;83.70;;;;;;4992998;28;20022;-79
2022/03/29 03:20:46;;;;;;;19.23;4.55;;;11.20;84.20;;;;;;4977308;28;20126;-79
2022/03/29 03:23:12;;;;;;;18.50;4.40;;;11.20;84.70;;;;;;4994022;28;20037;-79
2022/03/29 03:25:38;;;;;;;13.85;4.43;;;11.10;85.30;;;;;;4989699;28;20030;-79
2022/03/29 03:28:04;;;;;;;14.75;4.57;;;11.10;85.50;;;;;;4974765;28;20023;-79
2022/03/29 03:30:30;;;;;;;12.45;4.18;;;11.00;86.30;;;;;;4974129;28;20042;-79
2022/03/29 03:32:56;;;;;;;12.73;4.70;;;11.00;86.70;;;;;;4974419;28;20023;-79
2022/03/29 03:35:22;;;;;;;14.82;4.00;;;11.10;86.60;;;;;;4974536;28;20403;-79
2022/03/29 03:37:48;;;;;;;16.05;4.28;;;11.20;86.60;;;;;;4981605;28;20081;-79
2022/03/29 03:40:14;;;;;;;13.48;4.97;;;11.10;86.90;;;;;;4993127;28;20038;-79
2022/03/29 03:42:40;;;;;;;14.48;4.50;;;11.10;87.20;;;;;;4993428;28;20030;-79
2022/03/29 03:45:07;;;;;;;17.23;4.65;;;11.10;87.70;;;;;;4993404;28;20109;-79
2022/03/29 03:47:34;;;;;;;13.40;4.35;;;11.10;88.10;;;;;;4993594;28;20116;-78
2022/03/29 03:50:00;;;;;;;12.38;4.40;;;11.10;88.20;;;;;;4993906;28;20038;-79
2022/03/29 03:52:26;;;;;;;24.80;4.90;;;11.10;88.80;;;;;;4993262;28;20026;-79
2022/03/29 03:54:51;;;;;;;21.25;5.45;;;11.10;89.10;;;;;;4993796;28;20081;-79
2022/03/29 03:57:18;;;;;;;10.75;4.10;;;11.10;89.70;;;;;;4994307;28;20026;-79
2022/03/29 03:59:48;;;;;;;19.88;5.03;;;11.00;90.10;;;;;;4975456;28;20058;-79
2022/03/29 04:02:17;;;;;;;17.48;4.72;;;11.00;90.00;;;;;;4993620;28;20057;-79
2022/03/29 04:04:43;;;;;;;18.33;5.50;;;11.10;90.00;;;;;;4993049;28;20093;-79
2022/03/29 04:07:08;;;;;;;20.63;5.30;;;11.10;90.20;;;;;;4993641;28;20027;-79
2022/03/29 04:09:35;;;;;;;8.73;4.22;;;11.10;90.40;;;;;;4993550;28;20498;-79
2022/03/29 04:12:05;;;;;;;15.88;4.55;;;11.10;90.40;;;;;;4993499;28;20398;-79
2022/03/29 04:14:31;;;;;;;17.35;4.93;;;11.10;90.60;;;;;;4992142;28;20033;-78
2022/03/29 04:16:57;;;;;;;15.50;4.47;;;11.00;90.90;;;;;;4975629;28;20538;-78
2022/03/29 04:19:23;;;;;;;9.75;4.72;;;11.00;90.90;;;;;;4976216;28;20049;-79
2022/03/29 04:21:48;;;;;;;19.10;4.25;;;11.00;91.00;;;;;;4993114;28;20068;-79
2022/03/29 04:24:14;;;;;;;9.80;4.32;;;10.80;91.50;;;;;;4993459;28;20088;-78
2022/03/29 04:26:40;;;;;;;11.50;4.32;;;10.90;91.60;;;;;;4993038;28;20279;-78
2022/03/29 04:29:06;;;;;;;14.45;4.80;;;10.90;91.50;;;;;;4978202;28;20027;-81
2022/03/29 04:31:32;;;;;;;24.10;5.07;;;10.90;91.60;;;;;;4973477;28;20065;-79
2022/03/29 04:33:59;;;;;;;20.27;5.05;;;10.90;91.50;;;;;;4973797;28;20027;-78
2022/03/29 04:36:26;;;;;;;15.98;4.72;;;10.90;91.70;;;;;;4973866;28;20094;-79
2022/03/29 04:38:52;;;;;;;11.18;3.63;;;11.00;91.80;;;;;;4989510;28;20041;-79
2022/03/29 04:41:18;;;;;;;16.08;4.95;;;10.90;92.00;;;;;;4989156;28;20026;-79
2022/03/29 04:43:44;;;;;;;13.20;4.85;;;11.00;91.90;;;;;;4974942;28;20026;-79
2022/03/29 04:46:10;;;;;;;14.52;5.45;;;11.00;92.10;;;;;;4992982;28;20022;-79
2022/03/29 04:48:36;;;;;;;10.65;5.05;;;11.00;92.20;;;;;;4992009;28;20124;-79
2022/03/29 04:51:02;;;;;;;12.95;4.78;;;11.00;92.10;;;;;;4992532;28;20029;-81
2022/03/29 04:53:28;;;;;;;11.60;4.18;;;11.00;92.40;;;;;;4975318;28;20026;-81
2022/03/29 04:55:53;;;;;;;19.48;4.70;;;11.00;92.50;;;;;;4990466;28;20054;-79
2022/03/29 04:58:20;;;;;;;11.10;3.83;;;10.90;92.90;;;;;;4974307;28;20071;-78
2022/03/29 05:00:46;;;;;;;13.77;4.60;;;11.00;93.10;;;;;;4991569;28;20561;-79
2022/03/29 05:03:12;;;;;;;10.90;4.85;;;11.00;93.20;;;;;;4991476;28;20034;-78
2022/03/29 05:05:38;;;;;;;9.93;4.65;;;11.00;93.40;;;;;;4991771;28;20021;-79
2022/03/29 05:08:03;;;;;;;14.65;4.95;;;11.00;93.60;;;;;;4991696;28;20113;-79
2022/03/29 05:10:29;;;;;;;12.43;4.95;;;11.00;93.80;;;;;;4991678;28;20386;-79
2022/03/29 05:12:56;;;;;;;10.43;4.45;;;10.90;94.20;;;;;;4991964;28;20030;-81
2022/03/29 05:15:22;;;;;;;14.20;4.45;;;11.00;94.40;;;;;;4993536;28;20014;-83
2022/03/29 05:17:48;;;;;;;15.55;4.70;;;11.00;94.80;;;;;;4991120;28;20113;-81
2022/03/29 05:20:15;;;;;;;12.98;4.75;;;11.00;95.10;;;;;;4973819;28;20102;-80
2022/03/29 05:22:46;;;;;;;13.02;5.10;;;11.00;95.20;;;;;;4981708;28;20030;-80
2022/03/29 05:25:17;;;;;;;14.18;4.88;;;11.00;95.60;;;;;;4974674;28;20065;-80
2022/03/29 05:27:43;;;;;;;12.93;4.70;;;11.00;95.90;;;;;;4974763;28;20038;-80
2022/03/29 05:30:09;;;;;;;11.52;4.10;;;11.00;96.30;;;;;;4992051;28;20023;-80
2022/03/29 05:32:35;;;;;;;16.48;5.65;;;11.10;96.60;;;;;;4992801;28;20069;-79
2022/03/29 05:35:01;;;;;;;16.77;5.30;;;11.00;96.90;;;;;;4991973;28;20579;-80
2022/03/29 05:37:27;;;;;;;24.83;6.55;;;11.00;97.30;;;;;;4991661;28;20039;-80
2022/03/29 05:39:53;;;;;;;10.32;4.95;;;11.10;97.70;;;;;;4991881;28;20386;-80
2022/03/29 05:42:18;;;;;;;15.27;5.65;;;11.10;98.00;;;;;;4990961;28;20041;-80
2022/03/29 05:44:44;;;;;;;16.90;5.65;;;11.00;98.30;;;;;;4992381;28;20033;-80
2022/03/29 05:49:54;;;;;;;13.98;5.55;;;11.10;98.80;;;;;;4992072;28;20069;-80
2022/03/29 05:52:22;;;;;;;15.00;5.65;;;11.10;99.00;;;;;;4992603;28;20030;-80
2022/03/29 05:54:48;;;;;;;20.08;5.18;;;11.10;99.40;;;;;;4991557;28;20103;-80
2022/03/29 05:57:15;;;;;;;14.15;5.55;;;11.10;99.60;;;;;;4991979;28;20177;-80
2022/03/29 05:59:42;;;;;;;10.65;4.82;;;11.10;99.90;;;;;;4991488;28;20046;-80
2022/03/29 06:02:08;;;;;;;12.90;5.20;;;11.10;99.90;;;;;;4991988;28;20486;-80
2022/03/29 06:04:37;;;;;;;13.80;5.07;;;11.10;99.90;;;;;;4991234;28;20102;-80
2022/03/29 06:07:04;;;;;;;15.38;4.93;;;11.10;99.90;;;;;;4990687;28;20398;-80
2022/03/29 06:09:34;;;;;;;14.68;4.95;;;11.10;99.90;;;;;;4991704;28;20087;-81
2022/03/29 06:12:00;;;;;;;15.90;6.32;;;11.10;99.90;;;;;;4991434;28;20030;-81
2022/03/29 06:14:26;;;;;;;13.85;4.90;;;11.10;99.90;;;;;;4991140;28;20109;-81
2022/03/29 06:16:52;;;;;;;12.20;5.50;;;11.10;99.90;;;;;;4995451;28;20545;-81
2022/03/29 06:19:18;;;;;;;16.83;6.15;;;11.10;99.90;;;;;;4995625;28;20027;-81
2022/03/29 06:21:44;;;;;;;15.48;5.63;;;11.10;99.90;;;;;;4995316;28;20054;-81
2022/03/29 06:24:11;;;;;;;15.82;5.68;;;11.10;99.90;;;;;;4994976;28;20080;-81
2022/03/29 06:26:39;;;;;;;19.08;6.13;;;11.10;99.90;;;;;;4995553;28;20482;-81
2022/03/29 06:29:09;;;;;;;13.05;4.90;;;11.00;99.90;;;;;;4993992;28;20037;-81
2022/03/29 06:31:35;;;;;;;15.02;5.53;;;11.00;99.90;;;;;;4993952;28;20026;-81
2022/03/29 06:34:01;;;;;;;14.88;5.38;;;11.00;99.90;;;;;;4993934;28;20549;-81
2022/03/29 06:36:28;;;;;;;16.20;5.72;;;11.10;99.90;;;;;;4995491;28;20050;-81
2022/03/29 06:38:54;;;;;;;18.30;5.55;;;11.00;99.90;;;;;;4994511;28;20026;-81
2022/03/29 06:41:19;;;;;;;13.45;5.93;;;11.10;99.90;;;;;;4995165;28;20096;-81
2022/03/29 06:43:47;;;;;;;20.52;5.93;;;11.10;99.90;;;;;;4995086;28;20050;-81
2022/03/29 06:46:12;;;;;;;17.25;5.38;;;11.20;99.90;;;;;;4994990;28;20398;-81
2022/03/29 06:48:41;;;;;;;16.80;5.80;;;11.30;99.90;;;;;;4994969;28;20033;-81
2022/03/29 06:51:09;;;;;;;28.65;6.03;;;11.40;99.90;;;;;;4993789;28;20058;-81
2022/03/29 06:53:35;;;;;;;12.27;5.65;;;11.50;99.90;;;;;;4985423;28;20057;-81
2022/03/29 06:56:01;;;;;;;17.33;6.20;;;11.50;99.90;;;;;;4986537;28;20026;-81
2022/03/29 06:58:28;;;;;;;10.90;5.53;;;11.50;99.90;;;;;;4988617;28;20445;-81
2022/03/29 07:00:56;;;;;;;22.73;5.68;;;11.60;99.90;;;;;;4994616;28;20529;-80
2022/03/29 07:03:22;;;;;;;13.13;6.03;;;11.70;99.90;;;;;;4995458;28;20031;-81
2022/03/29 07:05:48;;;;;;;15.13;5.63;;;11.60;99.90;;;;;;4993932;28;20033;-81
2022/03/29 07:08:16;;;;;;;13.50;5.97;;;11.60;99.90;;;;;;4978471;28;20026;-83
2022/03/29 07:13:26;;;;;;;13.77;6.00;;;11.60;99.90;;;;;;4984126;28;20038;-82
2022/03/29 07:15:52;;;;;;;17.45;6.25;;;11.70;99.90;;;;;;4990778;28;20014;-82
2022/03/29 07:18:18;;;;;;;19.80;8.00;;;11.70;99.90;;;;;;4993488;28;20026;-82
2022/03/29 07:20:44;;;;;;;16.48;7.07;;;11.70;99.90;;;;;;4973338;28;20030;-81
2022/03/29 07:23:10;;;;;;;17.27;6.28;;;11.70;99.90;;;;;;4990254;28;20033;-82
2022/03/29 07:25:36;;;;;;;16.83;6.90;;;11.80;99.90;;;;;;4994120;28;20544;-81
2022/03/29 07:28:02;;;;;;;25.27;6.88;;;11.80;99.90;;;;;;4992572;28;20057;-82
2022/03/29 07:30:30;;;;;;;17.35;5.60;;;11.80;99.90;;;;;;4994281;28;20030;-82
2022/03/29 07:33:00;;;;;;;20.98;7.38;;;11.80;99.90;;;;;;4988164;28;20438;-82
2022/03/29 07:35:28;;;;;;;13.98;6.35;;;11.90;99.90;;;;;;4993907;28;20054;-82
2022/03/29 09:23:34;;;;;;;21.30;6.78;;;13.50;99.90;;;;;;5685788;23;20437;-73
2022/03/29 09:26:01;;;;;;;22.77;7.35;;;13.60;99.90;;;;;;4987025;28;20045;-80
2022/03/29 09:28:34;;;;;;;20.17;6.53;;;13.70;99.90;;;;;;4994570;28;20100;-81
2022/03/29 09:31:00;;;;;;;16.02;6.78;;;13.70;99.90;;;;;;4980043;28;20482;-80
2022/03/29 09:33:31;;;;;;;19.25;5.93;;;13.90;99.90;;;;;;5005355;28;20153;-80
2022/03/29 09:36:20;;;;;;;22.58;7.97;;;13.90;99.90;;;;;;4988916;28;20014;-80
2022/03/29 09:38:47;;;;;;;21.98;9.40;;;14.20;99.90;;;;;;4990054;28;20030;-80
2022/03/29 09:41:26;;;;;;;23.92;7.93;;;14.30;99.90;;;;;;4974668;28;20023;-80
2022/03/29 09:44:09;;;;;;;19.92;7.57;;;14.60;99.90;;;;;;4992081;28;20037;-80
2022/03/29 09:47:04;;;;;;;15.65;6.35;;;14.80;99.90;;;;;;4991598;28;20386;-81
2022/03/29 09:49:47;;;;;;;23.70;7.10;;;14.80;99.90;;;;;;4991028;28;20030;-81
2022/03/29 09:52:15;;;;;;;22.10;6.80;;;14.90;99.90;;;;;;4995389;28;20026;-81
2022/03/29 09:54:42;;;;;;;19.02;5.95;;;14.60;99.90;;;;;;4994381;28;20018;-80
2022/03/29 09:57:09;;;;;;;18.50;7.15;;;14.90;99.90;;;;;;5000030;28;20026;-80
2022/03/29 09:59:48;;;;;;;22.75;7.00;;;15.20;99.90;;;;;;4996577;28;20041;-80
2022/03/29 10:02:13;;;;;;;15.77;7.10;;;15.00;99.90;;;;;;4991845;28;20126;-80
2022/03/29 10:04:40;;;;;;;19.77;7.25;;;15.40;99.90;;;;;;4994079;28;20113;-81
2022/03/29 10:07:10;;;;;;;22.58;8.45;;;15.30;99.90;;;;;;5003163;28;20038;-81
2022/03/29 10:09:38;;;;;;;18.13;6.95;;;15.00;99.90;;;;;;5003501;28;20034;-81
2022/03/29 10:12:09;;;;;;;23.27;6.95;;;15.00;99.90;;;;;;5000626;28;20153;-81
2022/03/29 10:14:36;;;;;;;20.25;6.80;;;15.10;99.90;;;;;;4997333;28;20014;-80
2022/03/29 10:17:03;;;;;;;22.38;7.70;;;15.10;99.90;;;;;;4994635;28;20022;-80
2022/03/29 10:19:30;;;;;;;26.73;8.45;;;15.10;99.90;;;;;;4979204;28;20034;-83
2022/03/29 10:21:58;;;;;;;21.23;7.53;;;15.10;99.90;;;;;;4998041;28;20026;-81
2022/03/29 10:24:23;;;;;;;19.73;6.70;;;14.90;99.90;;;;;;5006797;28;20081;-80
2022/03/29 10:26:52;;;;;;;18.85;6.22;;;14.90;99.90;;;;;;4997885;28;20037;-81
2022/03/29 10:29:18;;;;;;;17.92;6.65;;;15.20;99.90;;;;;;5015522;28;20026;-81
2022/03/29 10:32:01;;;;;;;21.52;7.55;;;15.20;99.90;;;;;;5015471;28;20022;-82
2022/03/29 10:34:39;;;;;;;18.95;6.80;;;15.10;99.90;;;;;;4995760;28;20034;-80
2022/03/29 10:37:17;;;;;;;24.58;6.93;;;15.00;99.90;;;;;;4996339;28;20101;-80
2022/03/29 10:39:47;;;;;;;21.25;6.80;;;14.80;99.90;;;;;;4977100;28;20553;-80
2022/03/29 10:42:26;;;;;;;19.50;6.20;;;14.70;99.90;;;;;;4977828;28;20038;-80
2022/03/29 10:45:00;;;;;;;22.23;7.18;;;14.80;99.90;;;;;;4994746;28;20026;-81
2022/03/29 10:47:28;;;;;;;21.40;7.22;;;15.00;99.90;;;;;;4994874;28;20030;-81
2022/03/29 10:49:54;;;;;;;16.73;6.25;;;15.20;99.90;;;;;;4994831;28;20026;-81
2022/03/29 10:52:22;;;;;;;18.05;6.93;;;15.00;99.90;;;;;;4995123;28;20379;-82
2022/03/29 10:54:50;;;;;;;26.42;7.03;;;14.90;99.90;;;;;;4994515;28;20026;-81
2022/03/29 10:57:25;;;;;;;22.95;7.88;;;14.80;99.90;;;;;;4977096;28;20478;-81
2022/03/29 10:59:51;;;;;;;23.98;7.57;;;14.70;99.90;;;;;;4994741;28;20022;-82
2022/03/29 11:02:22;;;;;;;18.27;7.60;;;14.70;99.90;;;;;;4975000;28;20058;-81
2022/03/29 11:05:05;;;;;;;20.70;8.13;;;14.70;99.90;;;;;;4974999;28;20027;-81
2022/03/29 11:07:36;;;;;;;18.65;7.20;;;14.70;99.90;;;;;;4980848;28;20033;-81
2022/03/29 11:10:23;;;;;;;18.23;6.78;;;14.80;99.90;;;;;;4994570;28;20504;-81
2022/03/29 11:12:52;;;;;;;20.48;7.07;;;14.60;99.90;;;;;;4995056;28;20117;-82
2022/03/29 14:36:19;;;;;;;27.05;6.63;;;17.50;92.10;;;;;;5658329;23;20153;-84
2022/03/29 14:38:46;;;;;;;24.23;6.60;;;17.60;91.60;;;;;;5000727;28;20109;-85
2022/03/29 14:41:12;;;;;;;28.50;6.25;;;17.40;90.20;;;;;;4991744;28;20023;-83
2022/03/29 14:43:38;;;;;;;27.52;5.10;;;17.40;91.00;;;;;;4994510;28;20042;-82
2022/03/29 14:46:04;;;;;;;25.10;6.38;;;17.10;85.20;;;;;;4994436;28;20022;-83
2022/03/29 14:48:30;;;;;;;39.38;6.57;;;17.00;83.90;;;;;;4993502;28;20029;-83
2022/03/29 14:50:57;;;;;;;24.73;5.35;;;17.00;85.10;;;;;;4994236;28;20030;-82
2022/03/29 14:53:23;;;;;;;33.28;6.65;;;17.00;84.30;;;;;;4994485;28;20021;-83
2022/03/29 14:55:50;;;;;;;42.17;5.82;;;17.00;84.10;;;;;;4994609;28;20038;-82
2022/03/29 14:58:18;;;;;;;27.30;5.97;;;16.90;86.10;;;;;;4977108;28;20149;-83
2022/03/29 15:00:46;;;;;;;17.38;5.68;;;17.10;86.10;;;;;;4995116;28;20026;-82
2022/03/29 15:03:12;;;;;;;20.63;5.57;;;17.00;86.30;;;;;;4976381;28;20496;-83
2022/03/29 15:05:38;;;;;;;25.00;6.20;;;17.00;86.40;;;;;;4994617;28;20506;-82
2022/03/29 15:08:04;;;;;;;24.40;6.00;;;17.00;86.20;;;;;;4994143;28;20054;-82
2022/03/29 15:10:30;;;;;;;31.15;6.47;;;16.90;86.70;;;;;;4977402;28;20057;-86
2022/03/29 15:12:55;;;;;;;30.98;6.45;;;16.80;86.60;;;;;;4977563;28;20023;-83
2022/03/29 15:15:21;;;;;;;23.85;6.05;;;16.80;86.40;;;;;;4994399;28;20026;-84
2022/03/29 15:17:47;;;;;;;25.10;5.93;;;16.90;86.00;;;;;;4977652;28;20029;-83
2022/03/29 15:20:13;;;;;;;31.45;5.68;;;16.90;86.00;;;;;;4993578;28;20405;-83
2022/03/29 15:22:39;;;;;;;30.85;6.43;;;16.80;86.80;;;;;;4994952;28;20046;-83
2022/03/29 15:25:05;;;;;;;22.73;5.90;;;16.80;85.90;;;;;;4994664;28;20058;-83
2022/03/29 15:27:31;;;;;;;27.15;6.00;;;16.80;86.30;;;;;;4994432;28;20105;-84
2022/03/29 15:29:57;;;;;;;26.20;6.05;;;16.90;87.10;;;;;;4977067;28;20114;-84
2022/03/29 15:32:23;;;;;;;25.00;6.38;;;16.90;87.40;;;;;;4976696;28;20018;-84
2022/03/29 15:34:50;;;;;;;19.92;6.85;;;16.80;89.60;;;;;;4994243;28;20022;-84
2022/03/29 15:37:17;;;;;;;19.15;5.50;;;16.80;88.10;;;;;;4978459;28;20117;-83
2022/03/29 15:39:47;;;;;;;26.40;6.63;;;16.80;89.90;;;;;;4957339;28;20058;-85
2022/03/29 15:42:14;;;;;;;31.55;6.90;;;16.90;90.20;;;;;;4974581;28;20097;-84
2022/03/29 15:44:43;;;;;;;30.70;6.72;;;16.70;90.00;;;;;;4974940;28;20030;-84
2022/03/29 15:47:10;;;;;;;29.88;6.50;;;16.70;90.60;;;;;;4957029;28;20031;-85
2022/03/29 15:49:36;;;;;;;29.98;6.55;;;16.60;90.10;;;;;;4956466;28;20027;-84
2022/03/29 15:52:03;;;;;;;31.10;6.90;;;16.50;90.20;;;;;;4974364;28;20030;-84
2022/03/29 15:54:29;;;;;;;31.33;6.97;;;16.50;90.50;;;;;;4956902;28;20027;-84
2022/03/29 15:56:55;;;;;;;24.42;6.35;;;16.50;90.90;;;;;;4974661;28;20076;-84
2022/03/29 15:59:21;;;;;;;22.20;6.57;;;16.30;90.90;;;;;;4974274;28;20039;-84
2022/03/29 16:01:47;;;;;;;24.85;6.60;;;16.40;91.30;;;;;;4974789;28;20027;-85
2022/03/29 16:04:13;;;;;;;15.32;5.57;;;16.40;91.80;;;;;;4956519;28;20410;-85
2022/03/29 16:06:40;;;;;;;24.50;6.82;;;16.30;92.30;;;;;;4956635;28;20506;-84
2022/03/29 16:09:06;;;;;;;22.77;6.40;;;16.20;92.80;;;;;;4973521;28;20023;-85
2022/03/29 16:11:32;;;;;;;25.33;7.22;;;16.20;92.90;;;;;;4956646;28;20027;-83
2022/03/29 16:13:58;;;;;;;26.02;7.40;;;16.20;93.20;;;;;;4974407;28;20027;-84
2022/03/29 16:16:23;;;;;;;25.60;7.00;;;16.10;93.70;;;;;;4973084;28;20615;-82
2022/03/29 16:18:49;;;;;;;35.40;7.95;;;16.00;94.00;;;;;;4956257;28;20033;-85
2022/03/29 16:21:15;;;;;;;28.58;6.70;;;15.90;94.40;;;;;;4956680;28;20455;-85
2022/03/29 16:23:41;;;;;;;37.22;10.18;;;15.80;94.60;;;;;;4953801;28;20408;-85
2022/03/29 16:26:10;;;;;;;28.50;7.97;;;15.80;94.90;;;;;;4956404;28;20027;-85
2022/03/29 16:28:40;;;;;;;26.90;6.50;;;15.80;94.90;;;;;;4973796;28;20019;-85
2022/03/29 16:31:09;;;;;;;29.95;6.55;;;15.70;95.30;;;;;;4956756;28;20070;-84
2022/03/29 16:33:35;;;;;;;29.15;6.70;;;15.60;95.50;;;;;;4972933;28;20023;-84
2022/03/29 16:36:02;;;;;;;35.67;7.03;;;15.60;95.50;;;;;;4955671;28;20414;-85
2022/03/29 16:38:28;;;;;;;22.80;7.05;;;15.50;95.00;;;;;;4974067;28;20023;-85
2022/03/29 16:40:53;;;;;;;33.58;8.07;;;15.50;94.60;;;;;;4973439;28;20449;-85
2022/03/29 16:43:20;;;;;;;32.85;7.47;;;15.50;94.80;;;;;;4973648;28;20030;-86
2022/03/29 16:45:46;;;;;;;30.48;7.05;;;15.40;95.00;;;;;;4955995;28;20132;-85
2022/03/29 16:48:12;;;;;;;29.90;6.68;;;15.40;95.60;;;;;;4956286;28;20452;-84
2022/03/29 16:50:38;;;;;;;32.75;10.38;;;15.40;95.60;;;;;;4973202;28;20026;-85
2022/03/29 16:53:04;;;;;;;25.77;6.72;;;15.40;95.60;;;;;;4956460;28;20394;-85
2022/03/29 16:55:32;;;;;;;26.65;6.82;;;15.20;95.80;;;;;;4973301;28;20046;-85
2022/03/29 16:58:01;;;;;;;27.85;6.25;;;15.20;95.90;;;;;;4974348;28;20022;-88
2022/03/29 17:00:27;;;;;;;30.90;8.55;;;15.10;96.00;;;;;;4955607;28;20027;-86
2022/03/29 17:02:52;;;;;;;33.03;6.43;;;15.10;96.80;;;;;;4956431;28;20033;-84
2022/03/29 17:05:18;;;;;;;24.55;6.72;;;15.00;96.60;;;;;;4956710;28;20582;-85
2022/03/29 17:07:44;;;;;;;22.75;6.50;;;14.90;97.10;;;;;;4974211;28;20102;-85
2022/03/29 17:10:10;;;;;;;33.05;7.32;;;14.80;97.60;;;;;;4956854;28;20082;-86
2022/03/29 17:12:35;;;;;;;21.30;5.85;;;14.70;97.80;;;;;;4973604;28;20031;-89
2022/03/29 17:15:02;;;;;;;25.02;6.13;;;14.60;98.20;;;;;;4957034;28;20027;-87
2022/03/29 17:17:31;;;;;;;26.63;7.00;;;14.70;98.30;;;;;;4956814;28;20030;-85
2022/03/29 17:19:58;;;;;;;27.13;7.95;;;14.70;98.50;;;;;;4974042;28;20026;-88
2022/03/29 17:22:24;;;;;;;30.92;11.60;;;14.60;99.00;;;;;;4956223;28;20031;-83
2022/03/29 17:24:50;;;;;;;28.63;9.52;;;14.50;99.40;;;;;;4972355;28;20037;-84
2022/03/29 17:27:17;;;;;;;25.33;6.68;;;14.50;99.80;;;;;;4974371;28;20030;-90
2022/03/29 17:29:43;;;;;;;33.10;7.32;;;14.40;99.90;;;;;;4972592;28;20402;-87
2022/03/29 17:32:09;;;;;;;28.85;7.70;;;14.40;99.90;;;;;;4956399;28;20023;-89
2022/03/29 17:34:35;;;;;;;39.97;7.97;;;14.40;99.90;;;;;;4956198;28;20390;-89
2022/03/29 17:37:01;;;;;;;23.00;5.53;;;14.40;99.90;;;;;;4955550;28;20047;-88
2022/03/29 17:39:28;;;;;;;25.20;5.40;;;14.30;99.90;;;;;;4973335;28;20035;-86
2022/03/29 17:41:54;;;;;;;30.30;6.13;;;14.20;99.90;;;;;;4955983;28;20058;-85
2022/03/29 17:44:20;;;;;;;23.88;6.15;;;14.10;99.90;;;;;;4956165;28;20031;-85
2022/03/29 17:46:47;;;;;;;27.55;6.63;;;14.10;99.90;;;;;;4956067;28;20037;-89
2022/03/29 17:49:12;;;;;;;22.98;7.28;;;14.10;99.90;;;;;;4956742;28;20054;-90